Nazca, Peru
Current Conditions -  °F | °C
As of 12:00 PM on Saturday 25 Oct 2014 (Local Time) from SPSO Reporting Station
Overcast Overcast  
Wind Chill: 64°   Ceiling: 10000
Heat Index: 64°   Visibility: 6mi
Dew Point: 59°   Wind: 6mph
Humidity: 83%   Direction: 280°W
Pressure: 30.03"   Gusts: NA
Location:  14.83°S, 74.94°W
Report Text: SPSO 251700Z 28005KT 9999 OVC100 18/15 Q1017 RMK BIRD HAZARDRWY 22/04 PP000
Loading
Personal Weather Stations






























Interactive Weather Map
Tropical Storm Tracking
New forecast layout! Learn more

10-Day Weather Forecast

Advertisements
Track Severe Weather on mobile